Wednesday, April 1, 2015, 12:31 AM EDT

KFYJ, West Point, Middle Peninsula Regional Airport

Location: Shacklefords, VA, United States Lat: 37.521
Local Time: 12:31 AM EDT ( 4:31 GMT) Lon: -76.764
Time Zone: US/Eastern Elev: 22 ft

Show me the last for .
Show Decoded

2015-04-01 00:15 METAR KFYJ 010415Z AUTO 35005KT 10SM SCT120 14/04 A2986 RMK AO2 T01400037 =
2015-03-31 23:55 METAR KFYJ 010355Z AUTO 34005KT 10SM SCT110 14/04 A2985 RMK AO2 T01420039 =
2015-03-31 23:35 METAR KFYJ 010335Z AUTO 35004KT 10SM BKN110 15/04 A2983 RMK AO2 T01450043 =
2015-03-31 23:15 METAR KFYJ 010315Z AUTO 00000KT 10SM SCT110 15/04 A2982 RMK AO2 T01470044 =
2015-03-31 22:55 METAR KFYJ 010255Z AUTO 00000KT 10SM SCT110 15/05 A2981 RMK AO2 T01460047 =
2015-03-31 22:35 METAR KFYJ 010235Z AUTO 02004KT 10SM CLR 15/06 A2980 RMK AO2 T01450055 =
2015-03-31 22:15 METAR KFYJ 010215Z AUTO 01004KT 10SM SCT047 BKN070 BKN080 15/06 A2979 RMK AO2
                 T01450059 =
2015-03-31 21:55 METAR KFYJ 010155Z AUTO 01005KT 10SM SCT047 BKN070 OVC090 16/06 A2979 RMK AO2
                 T01550061 =
2015-03-31 21:35 METAR KFYJ 010135Z AUTO 29010G15KT 10SM SCT047 BKN060 OVC100 19/04 A2974 RMK AO2
                 T01890037 =
2015-03-31 21:15 METAR KFYJ 010115Z AUTO 30008KT 10SM SCT065 BKN110 20/00 A2971 RMK AO2 T02040002
                 =
2015-03-31 20:55 METAR KFYJ 010055Z AUTO 29005G18KT 10SM SCT050 BKN065 OVC090 20/02 A2969 RMK AO2
                 T01980019 =
2015-03-31 20:35 METAR KFYJ 010035Z AUTO 25007KT 10SM SCT080 OVC100 20/00 A2969 RMK AO2 T02000001
                 =
2015-03-31 20:15 METAR KFYJ 010015Z AUTO 30007KT 260V330 10SM SCT060 SCT080 OVC100 22/M02 A2966
                 RMK AO2 T02171025 =
2015-03-31 19:55 METAR KFYJ 312355Z AUTO 27005KT 10SM SCT060 SCT080 OVC100 20/M01 A2967 RMK AO2
                 T02021009 10230 20202 =
2015-03-31 19:35 METAR KFYJ 312335Z AUTO 25010G14KT 10SM SCT060 SCT080 OVC100 22/M03 A2965 RMK
                 AO2 T02161034 =
2015-03-31 19:15 METAR KFYJ 312315Z AUTO 22011G16KT 10SM SCT070 BKN100 22/M04 A2963 RMK AO2
                 T02161039 =
2015-03-31 18:55 METAR KFYJ 312255Z AUTO 21014G22KT 10SM CLR 22/M04 A2960 RMK AO2 T02191045 =
2015-03-31 18:35 METAR KFYJ 312235Z AUTO 21013G20KT 10SM CLR 22/M05 A2960 RMK AO2 T02241048 =
2015-03-31 18:15 METAR KFYJ 312215Z AUTO 20014G26KT 10SM CLR 23/M06 A2960 RMK AO2 T02281059 =
2015-03-31 17:55 METAR KFYJ 312155Z AUTO 22018G26KT 10SM CLR 23/M06 A2962 RMK AO2 T02281060 =
2015-03-31 17:35 METAR KFYJ 312135Z AUTO 21019G26KT 10SM CLR 23/M06 A2963 RMK AO2 T02271057 =
2015-03-31 17:15 METAR KFYJ 312115Z AUTO 21013G23KT 10SM CLR 23/M05 A2964 RMK AO2 T02281054 =
2015-03-31 16:55 METAR KFYJ 312055Z AUTO 22018G25KT 10SM CLR 23/M05 A2965 RMK AO2 T02301055 =
2015-03-31 16:35 METAR KFYJ 312035Z AUTO 20015G22KT 10SM CLR 23/M04 A2964 RMK AO2 T02291044 =
2015-03-31 16:15 METAR KFYJ 312015Z AUTO 20020G25KT 10SM CLR 23/M05 A2966 RMK AO2 T02261053 =
2015-03-31 15:55 METAR KFYJ 311955Z AUTO 21016G26KT 10SM CLR 23/M05 A2968 RMK AO2 T02261055 =
2015-03-31 15:35 METAR KFYJ 311935Z AUTO 20011G26KT 10SM CLR 23/M05 A2969 RMK AO2 T02261053 =
2015-03-31 15:15 METAR KFYJ 311915Z AUTO 20014G22KT 10SM CLR 22/M05 A2971 RMK AO2 T02221048 =
2015-03-31 15:00 METAR KFYJ 311900Z AUTO 19015G21KT 10SM CLR 22/M04 A2973 RMK AO2 T02211044 =
2015-03-31 14:35 METAR KFYJ 311835Z AUTO 20013G20KT 10SM CLR 22/M04 A2975 RMK AO2 T02201042 =
2015-03-31 14:15 METAR KFYJ 311815Z AUTO 19012G22KT 10SM CLR 22/M04 A2978 RMK AO2 T02151036 =
2015-03-31 13:55 METAR KFYJ 311755Z AUTO 19012G19KT 10SM CLR 21/M04 A2980 RMK AO2 T02111040 10213
                 20031 =
2015-03-31 13:35 METAR KFYJ 311735Z AUTO 19014G20KT 10SM CLR 21/M03 A2982 RMK AO2 T02101035 =
2015-03-31 13:15 METAR KFYJ 311715Z AUTO 21012G19KT 10SM CLR 21/M04 A2984 RMK AO2 T02081040 =
2015-03-31 12:55 METAR KFYJ 311655Z AUTO 18009G14KT 10SM CLR 20/M05 A2986 RMK AO2 T02011047 =
2015-03-31 12:35 METAR KFYJ 311635Z AUTO 21011G18KT 10SM CLR 20/M06 A2988 RMK AO2 T02011056 =
2015-03-31 12:15 METAR KFYJ 311615Z AUTO 20010G17KT 10SM CLR 20/M05 A2989 RMK AO2 T01971048 =
2015-03-31 11:55 METAR KFYJ 311555Z AUTO 20010G15KT 10SM CLR 19/M04 A2991 RMK AO2 T01941043 =
2015-03-31 11:35 METAR KFYJ 311535Z AUTO 19007KT 10SM CLR 19/M05 A2993 RMK AO2 T01891046 =
2015-03-31 11:15 METAR KFYJ 311515Z AUTO 21010KT 10SM CLR 19/M05 A2994 RMK AO2 T01891054 =
2015-03-31 10:55 METAR KFYJ 311455Z AUTO 22011G16KT 10SM CLR 19/M06 A2996 RMK AO2 T01851058 =
2015-03-31 10:35 METAR KFYJ 311435Z AUTO 23008KT 10SM CLR 18/M05 A2996 RMK AO2 T01811054 =
2015-03-31 10:15 METAR KFYJ 311415Z AUTO 22007KT 10SM CLR 17/M04 A2997 RMK AO2 T01721038 =
2015-03-31 09:55 METAR KFYJ 311355Z AUTO 22005KT 10SM CLR 16/M02 A2998 RMK AO2 T01561022 =
2015-03-31 09:35 METAR KFYJ 311335Z AUTO 21005KT 10SM CLR 14/M01 A2998 RMK AO2 T01391008 =
2015-03-31 09:15 METAR KFYJ 311315Z AUTO 19004KT 10SM CLR 13/00 A2999 RMK AO2 T01261002 =
2015-03-31 08:35 METAR KFYJ 311235Z AUTO 00000KT 10SM CLR 09/04 A3000 RMK AO2 T00900036 =
2015-03-31 08:15 METAR KFYJ 311215Z AUTO 00000KT 10SM CLR 06/04 A3000 RMK AO2 T00590041 =
2015-03-31 07:55 METAR KFYJ 311155Z AUTO 00000KT 10SM CLR 03/01 A3001 RMK AO2 70001 T00280012
                 10045 20000 =
2015-03-31 07:35 METAR KFYJ 311135Z AUTO 00000KT 10SM CLR 01/00 A3000 RMK AO2 T00141001 =
2015-03-31 07:15 METAR KFYJ 311115Z AUTO 00000KT 10SM CLR 01/00 A3000 RMK AO2 T00111004 =
2015-03-31 06:55 METAR KFYJ 311055Z AUTO 00000KT 10SM CLR 01/M01 A3000 RMK AO2 T00051012 =
2015-03-31 06:35 METAR KFYJ 311035Z AUTO 00000KT 10SM CLR 03/01 A3000 RMK AO2 T00250005 =
2015-03-31 06:15 METAR KFYJ 311015Z AUTO 00000KT 10SM CLR 01/M01 A2999 RMK AO2 T00081009 =
2015-03-31 05:55 METAR KFYJ 310955Z AUTO 00000KT 10SM CLR 01/M01 A2999 RMK AO2 T00101008 =
2015-03-31 05:35 METAR KFYJ 310935Z AUTO 00000KT 10SM CLR 00/M02 A2999 RMK AO2 T00031018 =
2015-03-31 05:15 METAR KFYJ 310915Z AUTO 00000KT 10SM CLR 02/00 A3000 RMK AO2 T00151004 =
2015-03-31 04:55 METAR KFYJ 310855Z AUTO 00000KT 10SM CLR 01/M01 A3000 RMK AO2 T00071014 =
2015-03-31 04:35 METAR KFYJ 310835Z AUTO 00000KT 10SM CLR 02/00 A3000 RMK AO2 T00161004 =
2015-03-31 04:15 METAR KFYJ 310815Z AUTO 00000KT 10SM CLR 01/M01 A2999 RMK AO2 T00141014 =
2015-03-31 03:35 METAR KFYJ 310735Z AUTO 00000KT 10SM CLR 02/M01 A3000 RMK AO2 T00181012 =
2015-03-31 03:15 METAR KFYJ 310715Z AUTO 00000KT 10SM CLR 02/M01 A3000 RMK AO2 T00211008 =
2015-03-31 02:55 METAR KFYJ 310655Z AUTO 00000KT 10SM CLR 02/M02 A3000 RMK AO2 T00201018 =
2015-03-31 02:35 METAR KFYJ 310635Z AUTO 00000KT 10SM CLR 03/00 A3000 RMK AO2 T00281005 =
2015-03-31 02:15 METAR KFYJ 310615Z AUTO 00000KT 10SM CLR 03/M01 A3000 RMK AO2 T00261011 =
2015-03-31 01:55 METAR KFYJ 310555Z AUTO 00000KT 10SM CLR 05/M01 A3000 RMK AO2 T00451006 10160
                 20021 402000021 =
2015-03-31 01:35 METAR KFYJ 310535Z AUTO 00000KT 10SM CLR 04/M01 A3000 RMK AO2 T00351006 =
2015-03-31 01:15 METAR KFYJ 310515Z AUTO 08003KT 10SM CLR 02/M01 A3000 RMK AO2 T00241007 =
2015-03-31 00:55 METAR KFYJ 310455Z AUTO 00000KT 10SM CLR 05/00 A3000 RMK AO2 T00490002 =
2015-03-31 00:35 METAR KFYJ 310435Z AUTO 00000KT 10SM CLR 04/00 A3001 RMK AO2 T00431001 =

Support USWX by starting your Amazon purchase here.